createdAt,value
2023-05-13T00:01:53.596Z,10.00
2023-05-13T00:04:23.294Z,10.35
2023-05-13T00:06:50.787Z,10.23
2023-05-13T00:09:17.957Z,9.70
2023-05-13T00:11:45.107Z,10.07
2023-05-13T00:14:12.302Z,9.73
2023-05-13T00:16:39.562Z,7.93
2023-05-13T00:19:07.032Z,9.98
2023-05-13T00:21:34.272Z,9.30
2023-05-13T00:24:01.541Z,7.57
2023-05-13T00:26:28.958Z,9.35
2023-05-13T00:28:56.223Z,9.77
2023-05-13T00:31:23.441Z,8.95
2023-05-13T00:33:50.646Z,9.88
2023-05-13T00:36:17.782Z,9.38
2023-05-13T00:38:45.024Z,8.52
2023-05-13T00:41:12.436Z,8.85
2023-05-13T00:43:39.670Z,8.90
2023-05-13T00:46:07.368Z,9.10
2023-05-13T00:48:34.665Z,8.80
2023-05-13T00:51:02.168Z,8.73
2023-05-13T00:53:32.410Z,8.73
2023-05-13T00:56:00.118Z,8.73
2023-05-13T00:58:27.462Z,8.60
2023-05-13T01:01:09.926Z,8.02
2023-05-13T01:06:13.504Z,9.30
2023-05-13T01:09:12.882Z,8.13
2023-05-13T01:11:41.813Z,6.80
2023-05-13T01:14:16.693Z,7.35
2023-05-13T01:17:08.044Z,8.13
2023-05-13T01:19:55.460Z,9.90
2023-05-13T01:22:22.695Z,9.30
2023-05-13T01:24:50.800Z,10.48
2023-05-13T01:27:19.090Z,8.30
2023-05-13T01:29:49.129Z,10.00
2023-05-13T01:32:22.851Z,9.52
2023-05-13T01:34:52.624Z,10.40
2023-05-13T01:37:22.122Z,9.75
2023-05-13T01:39:50.449Z,10.05
2023-05-13T01:42:18.300Z,8.57
2023-05-13T01:44:45.943Z,8.13
2023-05-13T01:47:13.956Z,9.95
2023-05-13T01:49:41.126Z,9.38
2023-05-13T01:52:08.444Z,9.80
2023-05-13T01:54:35.795Z,9.93
2023-05-13T01:59:35.024Z,9.48
2023-05-13T02:02:02.863Z,8.70
2023-05-13T02:04:30.251Z,10.20
2023-05-13T02:06:58.321Z,10.23
2023-05-13T02:09:28.762Z,9.38
2023-05-13T02:11:56.060Z,9.25
2023-05-13T02:14:23.211Z,8.35
2023-05-13T02:16:50.768Z,9.18
2023-05-13T02:19:18.067Z,9.38
2023-05-13T02:21:45.485Z,7.18
2023-05-13T02:24:13.896Z,7.65
2023-05-13T02:26:41.807Z,8.65
2023-05-13T02:29:09.024Z,8.15
2023-05-13T02:31:36.929Z,8.98
2023-05-13T02:34:04.152Z,8.00
2023-05-13T02:36:31.594Z,8.57
2023-05-13T02:38:58.956Z,7.38
2023-05-13T02:41:26.074Z,7.85
2023-05-13T02:43:53.203Z,10.07
2023-05-13T02:46:21.333Z,8.23
2023-05-13T02:48:51.961Z,11.00
2023-05-13T02:51:19.310Z,7.88
2023-05-13T02:53:46.489Z,8.07
2023-05-13T02:56:16.420Z,8.07
2023-05-13T02:58:43.975Z,7.90
2023-05-13T03:01:11.270Z,8.23
2023-05-13T03:03:38.625Z,8.18
2023-05-13T03:06:06.497Z,8.63
2023-05-13T03:08:33.676Z,9.82
2023-05-13T03:11:01.631Z,8.63
2023-05-13T03:13:28.849Z,10.48
2023-05-13T03:15:56.884Z,10.52
2023-05-13T03:18:24.155Z,8.30
2023-05-13T03:20:52.099Z,9.32
2023-05-13T03:23:19.200Z,8.15
2023-05-13T03:25:48.509Z,8.18
2023-05-13T03:28:15.714Z,8.82
2023-05-13T03:30:44.407Z,8.20
2023-05-13T03:33:17.905Z,8.35
2023-05-13T03:35:45.989Z,8.80
2023-05-13T03:38:13.193Z,7.18
2023-05-13T03:40:47.086Z,7.93
2023-05-13T03:43:14.589Z,7.22
2023-05-13T03:45:48.551Z,8.55
2023-05-13T03:48:19.063Z,8.18
2023-05-13T03:50:46.175Z,8.52
2023-05-13T03:53:15.984Z,8.65
2023-05-13T03:55:43.786Z,7.93
2023-05-13T03:58:21.780Z,7.65
2023-05-13T04:00:49.151Z,8.18
2023-05-13T04:03:17.469Z,8.35
2023-05-13T04:05:46.739Z,9.13
2023-05-13T04:08:14.068Z,7.97
2023-05-13T04:10:41.402Z,7.63
2023-05-13T04:13:08.580Z,9.15
2023-05-13T04:15:35.869Z,8.25
2023-05-13T04:18:03.201Z,7.63
2023-05-13T04:20:30.799Z,7.85
2023-05-13T04:22:57.966Z,8.93
2023-05-13T04:25:25.847Z,8.73
2023-05-13T04:27:53.515Z,9.15
2023-05-13T04:30:29.518Z,9.25
2023-05-13T04:32:57.533Z,9.32
2023-05-13T04:35:25.008Z,9.73
2023-05-13T04:37:56.803Z,10.82
2023-05-13T04:40:24.216Z,8.73
2023-05-13T04:42:55.210Z,8.88
2023-05-13T04:45:31.897Z,8.68
2023-05-13T04:48:00.218Z,9.23
2023-05-13T04:50:27.575Z,9.02
2023-05-13T04:52:56.615Z,10.25
2023-05-13T04:55:25.990Z,9.70
2023-05-13T04:57:55.422Z,8.83
2023-05-13T05:00:22.899Z,8.27
2023-05-13T05:02:51.679Z,10.00
2023-05-13T05:05:18.975Z,9.10
2023-05-13T05:07:47.185Z,8.75
2023-05-13T05:10:15.647Z,8.65
2023-05-13T05:12:48.716Z,9.07
2023-05-13T05:15:16.133Z,8.20
2023-05-13T05:17:46.920Z,8.43
2023-05-13T05:20:14.488Z,7.57
2023-05-13T05:22:42.376Z,9.27
2023-05-13T05:25:11.747Z,8.90
2023-05-13T05:27:39.109Z,8.75
2023-05-13T05:30:07.619Z,8.70
2023-05-13T05:32:36.510Z,9.40
2023-05-13T05:35:05.701Z,9.93
2023-05-13T05:37:33.830Z,8.63
2023-05-13T05:40:01.127Z,10.52
2023-05-13T05:42:29.046Z,9.27
2023-05-13T05:44:56.389Z,9.95
2023-05-13T05:47:24.070Z,9.25
2023-05-13T05:49:51.825Z,9.10
2023-05-13T05:52:19.512Z,7.07
2023-05-13T05:54:46.718Z,8.30
2023-05-13T05:57:14.521Z,8.52
2023-05-13T05:59:41.848Z,8.07
2023-05-13T06:02:09.300Z,9.18
2023-05-13T06:04:36.764Z,8.32
2023-05-13T06:07:04.155Z,8.82
2023-05-13T06:09:31.512Z,9.00
2023-05-13T06:11:58.600Z,10.27
2023-05-13T06:14:25.838Z,8.95
2023-05-13T06:16:54.944Z,9.38
2023-05-13T06:19:23.028Z,7.57
2023-05-13T06:21:50.141Z,9.02
2023-05-13T06:24:17.309Z,9.98
2023-05-13T06:26:45.573Z,7.97
2023-05-13T06:29:14.634Z,10.00
2023-05-13T06:31:41.945Z,8.35
2023-05-13T06:34:16.395Z,7.53
2023-05-13T06:36:44.525Z,8.02
2023-05-13T06:39:13.121Z,8.00
2023-05-13T06:41:41.016Z,8.77
2023-05-13T06:46:41.082Z,8.55
2023-05-13T06:49:08.304Z,7.05
2023-05-13T06:51:35.936Z,7.55
2023-05-13T06:54:03.272Z,9.32
2023-05-13T06:56:30.575Z,8.88
2023-05-13T06:58:57.819Z,7.72
2023-05-13T07:01:25.065Z,9.27
2023-05-13T07:03:52.449Z,9.45
2023-05-13T07:06:19.734Z,9.15
2023-05-13T07:08:47.034Z,8.88
2023-05-13T07:11:14.212Z,6.82
2023-05-13T07:13:41.403Z,9.20
2023-05-13T07:16:08.699Z,9.02
2023-05-13T07:18:36.135Z,8.77
2023-05-13T07:21:03.856Z,7.63
2023-05-13T07:23:31.584Z,8.52
2023-05-13T07:25:58.776Z,8.80
2023-05-13T07:28:25.901Z,8.70
2023-05-13T07:30:53.702Z,7.88
2023-05-13T07:33:21.021Z,8.07
2023-05-13T07:35:48.275Z,8.88
2023-05-13T07:38:15.728Z,8.10
2023-05-13T07:40:42.863Z,7.85
2023-05-13T07:43:10.142Z,9.10
2023-05-13T07:45:39.318Z,8.25
2023-05-13T07:48:06.766Z,8.82
2023-05-13T07:50:34.146Z,7.30
2023-05-13T07:53:02.568Z,10.00
2023-05-13T07:55:30.384Z,7.82
2023-05-13T07:57:57.495Z,6.55
2023-05-13T08:00:24.703Z,7.65
2023-05-13T08:02:52.462Z,7.35
2023-05-13T08:05:19.842Z,8.57
2023-05-13T08:07:47.321Z,8.20
2023-05-13T08:10:14.672Z,8.52
2023-05-13T08:12:42.017Z,8.55
2023-05-13T08:15:09.672Z,7.95
2023-05-13T08:17:36.821Z,8.30
2023-05-13T08:20:04.355Z,8.60
2023-05-13T08:22:32.113Z,8.77
2023-05-13T08:25:01.163Z,8.40
2023-05-13T08:27:28.629Z,8.52
2023-05-13T08:29:55.850Z,8.48
2023-05-13T08:32:23.088Z,8.95
2023-05-13T08:34:50.475Z,9.00
2023-05-13T08:37:17.744Z,8.05
2023-05-13T08:39:45.207Z,8.32
2023-05-13T08:42:15.295Z,9.43
2023-05-13T08:44:44.589Z,9.40
2023-05-13T08:47:24.714Z,9.88
2023-05-13T08:49:52.954Z,8.85
2023-05-13T08:52:22.986Z,8.57
2023-05-13T08:54:50.452Z,9.45
2023-05-13T08:57:17.661Z,9.90
2023-05-13T08:59:44.989Z,9.63
2023-05-13T09:02:12.568Z,8.80
2023-05-13T09:04:42.591Z,9.02
2023-05-13T09:07:10.975Z,9.77
2023-05-13T09:09:38.747Z,10.27
2023-05-13T09:12:06.277Z,6.38
2023-05-13T09:14:33.694Z,7.10
2023-05-13T09:17:04.667Z,7.45
2023-05-13T09:19:31.887Z,7.13
2023-05-13T09:21:59.095Z,8.20
2023-05-13T09:24:26.337Z,7.07
2023-05-13T09:26:53.598Z,10.27
2023-05-13T09:29:26.522Z,7.75
2023-05-13T09:31:57.945Z,8.90
2023-05-13T09:34:33.603Z,8.00
2023-05-13T09:37:06.491Z,7.43
2023-05-13T09:39:42.127Z,8.65
2023-05-13T09:42:19.562Z,8.30
2023-05-13T09:44:47.441Z,6.18
2023-05-13T09:47:16.045Z,7.60
2023-05-13T09:49:44.852Z,7.78
2023-05-13T09:52:17.471Z,7.88
2023-05-13T09:54:45.188Z,6.93
2023-05-13T09:57:13.978Z,8.27
2023-05-13T09:59:41.922Z,7.20
2023-05-13T10:02:09.342Z,7.20
2023-05-13T10:04:37.137Z,6.30
2023-05-13T10:07:05.864Z,7.82
2023-05-13T10:09:36.580Z,7.68
2023-05-13T10:12:07.256Z,8.63
2023-05-13T10:14:37.254Z,7.65
2023-05-13T10:17:05.566Z,7.90
2023-05-13T10:19:33.640Z,8.50
2023-05-13T10:22:01.502Z,7.93
2023-05-13T10:24:29.501Z,7.80
2023-05-13T10:26:58.129Z,8.35
2023-05-13T10:29:26.555Z,8.73
2023-05-13T10:31:56.019Z,8.77
2023-05-13T10:34:24.453Z,8.73
2023-05-13T10:37:09.990Z,7.90
2023-05-13T10:39:46.696Z,6.82
2023-05-13T10:42:39.255Z,7.65
2023-05-13T10:45:07.890Z,8.73
2023-05-13T10:47:36.280Z,9.07
2023-05-13T10:50:22.280Z,8.10
2023-05-13T10:52:50.009Z,9.15
2023-05-13T10:55:21.092Z,8.23
2023-05-13T10:58:12.206Z,8.10
2023-05-13T11:00:41.778Z,8.98
2023-05-13T11:03:29.257Z,9.07
2023-05-13T11:06:04.705Z,8.35
2023-05-13T11:08:40.007Z,8.73
2023-05-13T11:11:26.543Z,8.93
2023-05-13T11:14:00.456Z,8.68
2023-05-13T11:16:27.707Z,7.93
2023-05-13T11:18:55.033Z,8.75
2023-05-13T11:21:41.216Z,10.00
2023-05-13T11:24:08.623Z,8.30
2023-05-13T11:26:59.121Z,8.63
2023-05-13T11:29:33.259Z,8.07
2023-05-13T11:32:02.050Z,8.88
2023-05-13T11:34:29.969Z,10.48
2023-05-13T11:37:11.048Z,8.88
2023-05-13T11:39:42.018Z,9.40
2023-05-13T11:42:10.970Z,9.65
2023-05-13T11:44:46.829Z,10.50
2023-05-13T11:47:14.208Z,9.43
2023-05-13T11:49:43.614Z,10.43
2023-05-13T11:52:15.882Z,9.00
2023-05-13T11:57:27.916Z,8.68
2023-05-13T11:59:57.107Z,9.35
2023-05-13T12:02:26.738Z,9.55
2023-05-13T12:04:54.303Z,9.75
2023-05-13T12:07:23.377Z,9.02
2023-05-13T12:09:51.808Z,10.25
2023-05-13T12:12:20.494Z,8.82
2023-05-13T12:14:50.374Z,10.40
2023-05-13T12:17:19.129Z,10.88
2023-05-13T12:20:05.935Z,10.80
2023-05-13T12:22:37.025Z,11.20
2023-05-13T12:25:35.446Z,11.88
2023-05-13T12:28:20.591Z,10.90
2023-05-13T12:31:06.063Z,9.93
2023-05-13T12:33:44.371Z,12.18
2023-05-13T12:36:33.827Z,11.65
2023-05-13T12:39:03.886Z,10.98
2023-05-13T12:41:42.365Z,11.13
2023-05-13T12:44:16.267Z,10.10
2023-05-13T12:47:01.488Z,11.07
2023-05-13T12:49:28.821Z,10.52
2023-05-13T12:51:56.999Z,9.95
2023-05-13T12:54:24.214Z,8.88
2023-05-13T12:56:52.127Z,10.27
2023-05-13T12:59:19.273Z,10.05
2023-05-13T13:01:48.312Z,9.65
2023-05-13T13:04:17.120Z,10.13
2023-05-13T13:06:44.481Z,11.75
2023-05-13T13:09:11.638Z,9.27
2023-05-13T13:11:39.338Z,9.98
2023-05-13T13:14:07.694Z,10.85
2023-05-13T13:16:38.460Z,9.45
2023-05-13T13:19:05.962Z,10.75
2023-05-13T13:21:33.257Z,10.68
2023-05-13T13:24:01.067Z,8.77
2023-05-13T13:26:28.162Z,9.82
2023-05-13T13:28:55.439Z,11.18
2023-05-13T13:31:22.549Z,9.40
2023-05-13T13:33:49.780Z,10.52
2023-05-13T13:36:17.144Z,9.82
2023-05-13T13:38:44.405Z,10.20
2023-05-13T13:41:11.527Z,10.80
2023-05-13T13:43:38.776Z,9.45
2023-05-13T13:46:06.283Z,11.23
2023-05-13T13:48:33.487Z,11.52
2023-05-13T13:51:00.711Z,11.77
2023-05-13T13:53:27.934Z,10.80
2023-05-13T13:55:55.094Z,9.15
2023-05-13T13:58:22.423Z,10.40
2023-05-13T14:00:49.505Z,10.10
2023-05-13T14:03:16.731Z,10.88
2023-05-13T14:05:44.300Z,10.30
2023-05-13T14:08:12.196Z,11.05
2023-05-13T14:10:39.572Z,8.40
2023-05-13T14:13:12.661Z,11.05
2023-05-13T14:15:42.525Z,11.07
2023-05-13T14:18:09.800Z,9.25
2023-05-13T14:20:38.419Z,10.32
2023-05-13T14:23:05.672Z,9.98
2023-05-13T14:25:32.894Z,9.20
2023-05-13T14:28:02.741Z,9.60
2023-05-13T14:30:35.894Z,8.52
2023-05-13T14:33:03.173Z,9.93
2023-05-13T14:35:34.433Z,9.93
2023-05-13T14:38:01.706Z,8.07
2023-05-13T14:40:28.839Z,9.00
2023-05-13T14:42:56.107Z,9.65
2023-05-13T14:45:23.314Z,9.73
2023-05-13T14:47:53.803Z,10.60
2023-05-13T14:50:21.621Z,9.95
2023-05-13T14:52:49.170Z,11.45
2023-05-13T14:55:16.581Z,11.57
2023-05-13T14:57:47.925Z,11.98
2023-05-13T15:00:17.573Z,13.33
2023-05-13T15:02:48.588Z,12.05
2023-05-13T15:05:15.809Z,12.00
2023-05-13T15:07:42.957Z,9.82
2023-05-13T15:10:10.547Z,11.38
2023-05-13T15:12:37.717Z,13.13
2023-05-13T15:15:05.545Z,12.77
2023-05-13T15:17:32.720Z,11.98
2023-05-13T15:19:59.847Z,12.90
2023-05-13T15:22:27.002Z,13.43
2023-05-13T15:24:54.212Z,11.52
2023-05-13T15:27:21.791Z,12.98
2023-05-13T15:29:48.923Z,14.10
2023-05-13T15:32:16.103Z,14.25
2023-05-13T15:34:43.850Z,14.20
2023-05-13T15:37:11.184Z,13.48
2023-05-13T15:39:38.552Z,12.75
2023-05-13T15:42:05.979Z,12.82
2023-05-13T15:44:33.078Z,12.85
2023-05-13T15:47:00.254Z,15.52
2023-05-13T15:49:27.530Z,12.32
2023-05-13T15:51:56.182Z,14.68
2023-05-13T15:54:23.265Z,14.13
2023-05-13T15:56:50.521Z,15.15
2023-05-13T15:59:17.695Z,13.68
2023-05-13T16:01:44.987Z,15.05
2023-05-13T16:04:12.229Z,14.23
2023-05-13T16:06:39.446Z,14.52
2023-05-13T16:09:06.604Z,15.20
2023-05-13T16:11:33.991Z,13.98
2023-05-13T16:14:01.420Z,13.38
2023-05-13T16:16:28.637Z,12.65
2023-05-13T16:18:56.088Z,12.80
2023-05-13T16:21:23.193Z,13.35
2023-05-13T16:23:51.117Z,12.55
2023-05-13T16:26:18.364Z,13.70
2023-05-13T16:28:45.681Z,12.10
2023-05-13T16:31:12.991Z,12.75
2023-05-13T16:33:40.289Z,13.57
2023-05-13T16:36:09.844Z,12.98
2023-05-13T16:38:36.976Z,13.52
2023-05-13T16:41:04.156Z,12.98
2023-05-13T16:43:31.281Z,12.20
2023-05-13T16:45:58.593Z,13.90
2023-05-13T16:48:25.902Z,13.75
2023-05-13T16:50:53.155Z,15.23
2023-05-13T16:53:22.932Z,12.70
2023-05-13T16:55:50.390Z,12.30
2023-05-13T16:58:17.880Z,11.38
2023-05-13T17:00:45.240Z,10.95
2023-05-13T17:03:13.626Z,12.13
2023-05-13T17:05:41.121Z,13.05
2023-05-13T17:08:08.280Z,12.85
2023-05-13T17:10:35.522Z,15.85
2023-05-13T17:13:02.657Z,12.73
2023-05-13T17:15:29.840Z,14.38
2023-05-13T17:17:57.109Z,15.73
2023-05-13T17:20:24.616Z,13.98
2023-05-13T17:22:52.054Z,16.45
2023-05-13T17:25:19.137Z,14.23
2023-05-13T17:27:46.418Z,13.35
2023-05-13T17:30:14.201Z,13.82
2023-05-13T17:32:41.494Z,14.40
2023-05-13T17:35:15.326Z,14.23
2023-05-13T17:37:42.595Z,15.30
2023-05-13T17:40:10.071Z,13.98
2023-05-13T17:42:37.273Z,13.68
2023-05-13T17:45:05.001Z,12.00
2023-05-13T17:47:32.676Z,12.27
2023-05-13T17:50:00.004Z,11.32
2023-05-13T17:52:27.197Z,12.27
2023-05-13T17:54:54.382Z,11.65
2023-05-13T17:57:21.741Z,12.73
2023-05-13T17:59:49.027Z,12.90
2023-05-13T18:02:16.350Z,12.48
2023-05-13T18:04:43.545Z,13.68
2023-05-13T18:07:10.723Z,11.93
2023-05-13T18:09:38.051Z,12.68
2023-05-13T18:12:05.713Z,9.70
2023-05-13T18:14:33.653Z,11.40
2023-05-13T18:17:00.954Z,10.82
2023-05-13T18:19:28.278Z,10.30
2023-05-13T18:21:55.744Z,13.15
2023-05-13T18:24:23.037Z,12.82
2023-05-13T18:26:50.225Z,10.73
2023-05-13T18:29:17.520Z,11.77
2023-05-13T18:31:45.471Z,10.77
2023-05-13T18:34:12.772Z,11.48
2023-05-13T18:36:39.911Z,13.82
2023-05-13T18:39:08.447Z,11.50
2023-05-13T18:41:36.154Z,11.98
2023-05-13T18:44:03.777Z,11.88
2023-05-13T18:46:31.166Z,11.27
2023-05-13T18:49:00.412Z,12.60
2023-05-13T18:51:27.792Z,13.68
2023-05-13T18:53:56.110Z,13.85
2023-05-13T18:56:23.440Z,12.32
2023-05-13T18:58:50.574Z,13.23
2023-05-13T19:01:17.999Z,13.27
2023-05-13T19:03:45.422Z,12.77
2023-05-13T19:06:12.875Z,13.63
2023-05-13T19:08:40.158Z,15.88
2023-05-13T19:11:07.542Z,14.77
2023-05-13T19:13:46.117Z,15.52
2023-05-13T19:16:14.673Z,11.38
2023-05-13T19:18:42.005Z,12.48
2023-05-13T19:21:09.290Z,12.18
2023-05-13T19:23:38.050Z,11.60
2023-05-13T19:26:05.375Z,11.18
2023-05-13T19:28:33.948Z,9.30
2023-05-13T19:31:01.362Z,10.88
2023-05-13T19:33:28.628Z,9.93
2023-05-13T19:35:55.949Z,11.18
2023-05-13T19:38:23.164Z,11.25
2023-05-13T19:40:53.395Z,11.65
2023-05-13T19:43:20.647Z,9.48
2023-05-13T19:45:48.050Z,9.48
2023-05-13T19:48:15.335Z,11.90
2023-05-13T19:50:42.534Z,10.95
2023-05-13T19:53:09.631Z,11.10
2023-05-13T19:55:40.182Z,11.10
2023-05-13T19:58:21.158Z,10.98
2023-05-13T20:00:58.429Z,11.38
2023-05-13T20:03:26.151Z,12.80
2023-05-13T20:05:59.780Z,11.10
2023-05-13T20:08:36.011Z,11.52
2023-05-13T20:11:11.014Z,13.00
2023-05-13T20:13:39.357Z,12.40
2023-05-13T20:16:06.523Z,10.65
2023-05-13T20:18:34.013Z,11.82
2023-05-13T20:21:01.706Z,11.30
2023-05-13T20:23:31.662Z,11.55
2023-05-13T20:26:02.227Z,11.10
2023-05-13T20:28:37.740Z,13.77
2023-05-13T20:31:05.103Z,11.82
2023-05-13T20:33:32.763Z,12.10
2023-05-13T20:35:59.891Z,13.85
2023-05-13T20:38:27.567Z,10.40
2023-05-13T20:40:55.009Z,11.07
2023-05-13T20:43:22.190Z,11.68
2023-05-13T20:45:49.617Z,9.85
2023-05-13T20:48:19.547Z,13.48
2023-05-13T20:50:49.066Z,12.02
2023-05-13T20:53:19.916Z,13.05
2023-05-13T20:55:47.166Z,14.10
2023-05-13T20:58:14.360Z,12.43
2023-05-13T21:00:48.689Z,12.50
2023-05-13T21:03:15.964Z,11.75
2023-05-13T21:05:43.332Z,10.32
2023-05-13T21:08:10.590Z,12.13
2023-05-13T21:10:37.943Z,10.73
2023-05-13T21:13:05.181Z,11.15
2023-05-13T21:15:35.724Z,12.32
2023-05-13T21:18:03.096Z,10.55
2023-05-13T21:20:32.783Z,12.40
2023-05-13T21:23:01.447Z,11.77
2023-05-13T21:25:28.941Z,11.48
2023-05-13T21:27:56.118Z,12.35
2023-05-13T21:30:23.897Z,11.43
2023-05-13T21:32:51.437Z,11.93
2023-05-13T21:35:19.378Z,11.18
2023-05-13T21:37:47.559Z,12.15
2023-05-13T21:40:15.196Z,13.27
2023-05-13T21:42:42.448Z,11.73
2023-05-13T21:45:10.192Z,12.00
2023-05-13T21:47:37.600Z,12.73
2023-05-13T21:50:07.991Z,11.45
2023-05-13T21:52:35.465Z,13.30
2023-05-13T21:55:03.527Z,10.75
2023-05-13T21:57:32.172Z,13.85
2023-05-13T21:59:59.447Z,13.02
2023-05-13T22:02:26.859Z,12.48
2023-05-13T22:04:55.313Z,11.77
2023-05-13T22:07:22.862Z,11.23
2023-05-13T22:09:50.595Z,12.32
2023-05-13T22:12:21.498Z,10.77
2023-05-13T22:14:49.278Z,11.98
2023-05-13T22:17:16.856Z,11.60
2023-05-13T22:19:44.966Z,12.88
2023-05-13T22:22:15.171Z,12.73
2023-05-13T22:24:42.450Z,15.63
2023-05-13T22:27:10.193Z,13.43
2023-05-13T22:29:37.442Z,11.63
2023-05-13T22:32:05.709Z,11.52
2023-05-13T22:34:33.532Z,12.52
2023-05-13T22:37:11.046Z,12.10
2023-05-13T22:39:38.747Z,14.05
2023-05-13T22:42:21.811Z,12.82
2023-05-13T22:44:53.956Z,12.82
2023-05-13T22:47:38.842Z,12.88
2023-05-13T22:50:06.898Z,15.15
2023-05-13T22:52:40.739Z,12.65
2023-05-13T22:55:14.202Z,15.15
2023-05-13T22:57:41.390Z,12.07
2023-05-13T23:00:09.177Z,10.93
2023-05-13T23:02:36.614Z,12.68
2023-05-13T23:05:07.635Z,12.27
2023-05-13T23:07:34.722Z,13.05
2023-05-13T23:10:01.954Z,13.75
2023-05-13T23:12:29.676Z,13.80
2023-05-13T23:14:57.470Z,14.75
2023-05-13T23:17:24.830Z,14.20
2023-05-13T23:19:53.249Z,13.85
2023-05-13T23:22:20.505Z,14.07
2023-05-13T23:24:47.679Z,11.73
2023-05-13T23:27:14.865Z,15.68
2023-05-13T23:29:42.272Z,13.38
2023-05-13T23:32:09.661Z,14.25
2023-05-13T23:34:37.009Z,17.42
2023-05-13T23:37:05.321Z,16.15
2023-05-13T23:39:32.515Z,16.52
2023-05-13T23:41:59.908Z,15.95
2023-05-13T23:44:27.459Z,15.95
2023-05-13T23:46:59.125Z,17.25
2023-05-13T23:49:35.899Z,15.55
2023-05-13T23:52:03.031Z,14.15
2023-05-13T23:54:30.523Z,14.27
2023-05-13T23:56:57.822Z,15.00
2023-05-13T23:59:25.008Z,15.48
